Texas — 9HA3095 — position and weather

sailwx.info

Track history (hours):
 
Tides and Currents Weather Stations Pressure Air Temp Water Temp Dewpoint Dewpoint Depression Visibility Wind Speed Wind Dir Waves Ship Positions

Texas

Last reported at 2018-Apr-13 10:07 UTC. Time now 2018-Jun-18 00:23 UTC.
Position N 18°01' E 118°16'.
Warning: this ship's position is months out of date.

Length 333 m; draft 20.4 m.

Type: Tanker. MMSI: 229132000.

Date/timePositionNaut miles runAvg speedWind from/ knotsBaromVisibWave heightAir tempDewpointWater temp
2018-Apr-13 10:07N 18°01' E 118°16'113.4
2018-Apr-13 10:00N 17°60' E 118°15'813.2
2018-Apr-13 09:23N 17°54' E 118°09'  
2018-Apr-08 22:25N 01°15' E 104°03'3 7.6
2018-Apr-08 21:59N 01°14' E 103°60'2 4.6
2018-Apr-08 21:30N 01°14' E 103°57'3 5.6
2018-Apr-08 21:00N 01°13' E 103°55'4 8.7
2018-Apr-08 20:30N 01°11' E 103°51'3 6.7
2018-Apr-08 20:00N 01°10' E 103°48'3 5.9
2018-Apr-08 19:31N 01°08' E 103°45'5 9.5
2018-Apr-08 19:01N 01°05' E 103°42'5 8.9
2018-Apr-08 18:30N 01°04' E 103°38'4 8.9
2018-Apr-08 18:00N 01°06' E 103°34'4 8.9
2018-Apr-08 17:30N 01°08' E 103°30'510.3
2018-Apr-08 16:59N 01°11' E 103°25'510.1
2018-Apr-08 16:30N 01°14' E 103°21'  
Track history (hours):
 
Tides and Currents Weather Stations Pressure Air Temp Water Temp Dewpoint Dewpoint Depression Visibility Wind Speed Wind Dir Waves Ship Positions

Texas

Last reported at 2018-Apr-13 10:07 UTC. Time now 2018-Jun-18 00:23 UTC.
Position N 18°01' E 118°16'.
Warning: this ship's position is months out of date.

Length 333 m; draft 20.4 m.

Type: Tanker. MMSI: 229132000.

Date/timePositionNaut miles runAvg speedWind from/ knotsBaromVisibWave heightAir tempDewpointWater temp
2018-Apr-13 10:07N 18°01' E 118°16'113.4
2018-Apr-13 10:00N 17°60' E 118°15'813.2
2018-Apr-13 09:23N 17°54' E 118°09'  
2018-Apr-08 22:25N 01°15' E 104°03'3 7.6
2018-Apr-08 21:59N 01°14' E 103°60'2 4.6
2018-Apr-08 21:30N 01°14' E 103°57'3 5.6
2018-Apr-08 21:00N 01°13' E 103°55'4 8.7
2018-Apr-08 20:30N 01°11' E 103°51'3 6.7
2018-Apr-08 20:00N 01°10' E 103°48'3 5.9
2018-Apr-08 19:31N 01°08' E 103°45'5 9.5
2018-Apr-08 19:01N 01°05' E 103°42'5 8.9
2018-Apr-08 18:30N 01°04' E 103°38'4 8.9
2018-Apr-08 18:00N 01°06' E 103°34'4 8.9
2018-Apr-08 17:30N 01°08' E 103°30'510.3
2018-Apr-08 16:59N 01°11' E 103°25'510.1
2018-Apr-08 16:30N 01°14' E 103°21'  

Dump ship's entire track history